Portada
METAR-TAF:

METAR-TAF

Aeroports :

Salalah, Oman

latitud: 17-02N, longitud: 054-05E, altitud: 20 m

Observació

L'informe es va fer fa 1 hora i 24 minuts, a les 01:50 UTC
Vent 4 kt del Nord
Temperatura 24°C
Humitat 83%
Pressió 1009 hPa
Visibilitat 10 km o més
Escasses núvols a una alçada de 2500 ft

METAR: OOSA 300150Z 36004KT 9999 FEW025 24/21 Q1009 NOSIG

Hora: 07:14 (03:14 UTC)

Pronòstic

L'informe es va fer fa 4 hores i 14 minuts, a les 23:00 UTC
Pronòstic vàlid del 30 a les 00 UTC al 01 a les 06 UTC
Vent 3 kt amb direcció variable
Visibilitat 10 km o més
sense núvols per sota de 1500 mi sense presència de cumulonimbus.
Evolucionant progressivament
l' 30 a les 06 UTC al 30 a les 08 UTC
Vent 10 kt del Sud/Sud-Oest
Evolucionant progressivament
l' 30 a les 16 UTC al 30 a les 18 UTC
Vent 3 kt amb direcció variable

TAF: OOSA 292300Z 3000/0106 VRB03KT CAVOK BECMG 3006/3008 20010KT BECMG 3016/3018 VRB03KT

Observacions i pronòstics meteorològics de més de 4000 aeroports (METAR i TAF).

Les estacions disponibles són els punts grocs i vermells al mapa.

Posi el ratolí al punt desitjat per veure el nom de l'estació.

Feu clic per veure les observacions i els pronòstics meteorològics.

Per canviar el mapa: feu clic els botons verds amb una creu de color negre per apropar; al botó verd amb un guió per allunyar la imatge; o en les fletxes verdes per a mapes adjacents.


METAR-TAF: